CPX997 Details

Departure: Los Angeles International Airport (KLAX)
Arrival: Incheon International Airport (RKSI) at N/A
Route: SUMMR1 MCKEY LIBBO BRINY BOARS BOXER FULMR FASEL 5300N/14000W 5500N/15000W 5600N/16000W ONEOX B757 NULUK R220 NUZAN NIPPI R220 NOGAL R220 NANNO R220 NODAN NIKON IXE Y88 CHINO Y16 SAPRA G585 CUN CUN1M
Notes:


Current Weather Information
KLAX 191553Z 13005KT 7SM OVC017 21/16 A2997 RMK AO2 SLP147 T02060156
RKSI 191600Z 04004KT CAVOK 24/18 Q1010 NOSIG